EW6892 Weather Reports


Display with metric or nautical units.
time (UTC)temp
F
wind
direction
speed
MPH
gust
MPH
rain 1hr
in
rain 24hr
in
rain mn
in
humidity
%
barometer
mb
20210804000537 92 0.0 1.0 0.00 0.00 0.00 30 1013.3
20210803235528 92 225 0.0 2.0 0.00 0.00 0.00 31 1013.4
20210803234522 92 0.0 0.0 0.00 0.00 0.00 34 1013.4
20210803233517 92 0.0 0.0 0.00 0.00 0.00 35 1013.4
20210803232612 92 0.0 0.0 0.00 0.00 0.00 34 1013.6
20210803231607 92 90 0.0 2.0 0.00 0.00 0.00 33 1013.7
20210803230600 92 0.0 1.0 0.00 0.00 0.00 33 1013.7
20210803225555 92 135 0.0 2.0 0.00 0.00 0.00 34 1013.9
20210803224550 92 225 0.0 2.0 0.00 0.00 0.00 34 1014.0
20210803223544 91 270 0.0 2.0 0.00 0.00 0.00 34 1014.1
20210803222540 91 270 0.0 2.0 0.00 0.00 0.00 32 1014.2
20210803221535 91 0.0 1.0 0.00 0.00 0.00 33 1014.3
20210803220528 90 0.0 1.0 0.00 0.00 0.00 33 1014.4
20210803215524 90 0.0 1.0 0.00 0.00 0.00 32 1014.5
20210803214517 90 0 0.0 2.0 0.00 0.00 0.00 32 1014.6
20210803213613 90 0.0 1.0 0.00 0.00 0.00 33 1014.7
20210803212607 89 135 0.0 2.0 0.00 0.00 0.00 33 1014.9
20210803211600 89 218 1.0 2.0 0.00 0.00 0.00 34 1015.0
20210803210555 88 0.0 1.0 0.00 0.00 0.00 35 1015.1
20210803205549 88 45 0.0 2.0 0.00 0.00 0.00 37 1015.2
20210803204542 88 0 0.0 2.0 0.00 0.00 0.00 37 1015.1
20210803203538 87 309 1.0 2.0 0.00 0.00 0.00 35 1015.3
20210803202531 87 360 0.0 2.0 0.00 0.00 0.00 35 1015.4
20210803201527 86 45 0.0 2.0 0.00 0.00 0.00 36 1015.5
20210803200523 86 90 1.0 2.0 0.00 0.00 0.00 37 1015.6
20210803195516 85 90 0.0 2.0 0.00 0.00 0.00 38 1015.7
20210803194611 84 119 0.0 2.0 0.00 0.00 0.00 38 1015.7
20210803193606 84 23 0.0 2.0 0.00 0.00 0.00 41 1015.8
20210803192600 83 45 0.0 2.0 0.00 0.00 0.00 42 1016.0
20210803191555 82 90 1.0 2.0 0.00 0.00 0.00 45 1016.2
20210803190550 82 0.0 2.0 0.00 0.00 0.00 45 1016.3
20210803185543 81 158 0.0 2.0 0.00 0.00 0.00 43 1016.5
20210803184538 80 45 0.0 2.0 0.00 0.00 0.00 45 1016.6
20210803183532 79 45 1.0 3.0 0.00 0.00 0.00 45 1016.6
20210803182527 79 45 1.0 2.0 0.00 0.00 0.00 47 1016.8
20210803181522 79 45 0.0 2.0 0.00 0.00 0.00 48 1017.0
20210803180516 78 180 1.0 2.0 0.00 0.00 0.00 49 1017.0
20210803175612 78 45 0.0 2.0 0.00 0.00 0.00 49 1017.0
20210803174607 77 0.0 2.0 0.00 0.00 0.00 51 1017.0
20210803173600 77 45 0.0 2.0 0.00 0.00 0.00 53 1017.2
20210803172556 76 0.0 0.0 0.00 0.00 0.00 55 1017.3
20210803171551 75 0.0 2.0 0.00 0.00 0.00 56 1017.5
20210803170544 74 0.0 1.0 0.00 0.00 0.00 57 1017.5
20210803165539 73 0.0 2.0 0.00 0.00 0.00 59 1017.5
20210803164534 72 0.0 0.0 0.00 0.00 0.00 61 1017.5
20210803163527 72 0.0 0.0 0.00 0.00 0.00 60 1017.6
20210803162522 73 0.0 0.0 0.00 0.00 0.00 57 1017.6
20210803161516 72 0.0 2.0 0.00 0.00 0.00 60 1017.7
20210803160611 71 0.0 0.0 0.00 0.00 0.00 60 1017.7
20210803155606 72 0.0 0.0 0.00 0.00 0.00 58 1017.8
20210803154601 74 0.0 0.0 0.00 0.00 0.00 55 1017.9
20210803153553 74 0.0 0.0 0.00 0.00 0.00 58 1017.9
20210803152548 72 0.0 0.0 0.00 0.00 0.00 61 1017.9
20210803151542 71 0.0 0.0 0.00 0.00 0.00 63 1017.9
20210803150538 69 0.0 0.0 0.00 0.00 0.00 66 1017.8
20210803145531 68 0.0 0.0 0.00 0.00 0.00 68 1017.7
20210803144527 67 0.0 0.0 0.00 0.00 0.00 69 1017.7
20210803143522 66 0.0 0.0 0.00 0.00 0.00 71 1017.7
20210803142616 64 0.0 0.0 0.00 0.00 0.00 71 1017.5
20210803141610 64 0.0 0.0 0.00 0.00 0.00 72 1017.5
20210803140605 63 0.0 1.0 0.00 0.00 0.00 73 1017.5
20210803135600 63 0.0 0.0 0.00 0.00 0.00 73 1017.4
20210803134556 63 0.0 2.0 0.00 0.00 0.00 74 1017.2
20210803133550 63 45 1.0 2.0 0.00 0.00 0.00 73 1017.2
20210803132544 63 45 0.0 2.0 0.00 0.00 0.00 72 1017.1
20210803131538 63 0.0 0.0 0.00 0.00 0.00 72 1017.0
20210803130531 63 0.0 1.0 0.00 0.00 0.00 71 1016.8
20210803125524 64 0.0 0.0 0.00 0.00 0.00 70 1016.7
20210803124517 64 0.0 0.0 0.00 0.00 0.00 69 1016.7
20210803123613 64 0.0 0.0 0.00 0.00 0.00 69 1016.7
20210803122607 65 0.0 0.0 0.00 0.00 0.00 69 1016.7
20210803121557 65 0.0 0.0 0.00 0.00 0.00 69 1016.5
20210803120552 65 0.0 1.0 0.00 0.00 0.00 69 1016.4
20210803115546 65 0.0 0.0 0.00 0.00 0.00 69 1016.4
20210803114540 65 45 0.0 2.0 0.00 0.00 0.00 69 1016.3
20210803113534 66 45 0.0 2.0 0.00 0.00 0.00 69 1016.3
20210803112529 66 45 0.0 2.0 0.00 0.00 0.00 68 1016.3
20210803111524 66 0.0 0.0 0.00 0.00 0.00 68 1016.3
20210803110519 66 0.0 0.0 0.00 0.00 0.00 67 1016.3
20210803105612 67 0.0 0.0 0.00 0.00 0.00 66 1016.3
20210803104607 67 0.0 0.0 0.00 0.00 0.00 65 1016.2
20210803103602 68 0.0 0.0 0.00 0.00 0.00 65 1016.2
20210803102556 68 0.0 0.0 0.00 0.00 0.00 64 1016.1
20210803101551 68 0.0 0.0 0.00 0.00 0.00 63 1016.1
20210803100546 69 0.0 0.0 0.00 0.00 0.00 62 1016.2
20210803095539 69 0.0 0.0 0.00 0.00 0.00 61 1016.0
20210803094533 69 0.0 0.0 0.00 0.00 0.00 61 1016.0
20210803093526 70 0.0 0.0 0.00 0.00 0.00 59 1016.0
20210803092520 70 0.0 0.0 0.00 0.00 0.00 59 1015.9
20210803091613 71 0.0 0.0 0.00 0.00 0.00 58 1016.2
20210803090608 71 0.0 0.0 0.00 0.00 0.00 57 1016.2
20210803085604 72 0.0 0.0 0.00 0.00 0.00 56 1016.2
20210803084556 72 0.0 1.0 0.00 0.00 0.00 56 1016.1
20210803083551 72 0.0 1.0 0.00 0.00 0.00 56 1016.2
20210803082546 73 45 0.0 2.0 0.00 0.00 0.00 54 1016.2
20210803081539 73 0.0 0.0 0.00 0.00 0.00 54 1016.2
20210803080535 74 0.0 0.0 0.00 0.00 0.00 53 1016.2
20210803075527 75 45 0.0 2.0 0.00 0.00 0.00 52 1016.3
20210803074521 75 0.0 1.0 0.00 0.00 0.00 50 1016.3
20210803073615 76 0.0 2.0 0.00 0.00 0.00 50 1016.3
20210803072610 76 0.0 1.0 0.00 0.00 0.00 49 1016.2
20210803071604 77 0.0 1.0 0.00 0.00 0.00 47 1016.2
20210803070557 77 45 0.0 2.0 0.00 0.00 0.00 46 1016.2
20210803065551 78 0.0 2.0 0.00 0.00 0.00 45 1016.2
20210803064545 78 0.0 1.0 0.00 0.00 0.00 44 1016.2
20210803063540 79 0.0 2.0 0.00 0.00 0.00 42 1016.1
20210803062535 79 45 0.0 2.0 0.00 0.00 0.00 42 1016.2
20210803061530 80 0.0 2.0 0.00 0.00 0.00 42 1016.2
20210803060522 81 0.0 1.0 0.00 0.00 0.00 40 1016.1
20210803055516 81 0.0 1.0 0.00 0.00 0.00 39 1016.2
20210803054611 82 0.0 1.0 0.00 0.00 0.00 37 1016.2
20210803053606 82 0.0 1.0 0.00 0.00 0.00 36 1016.2
20210803052600 82 0.0 0.0 0.00 0.00 0.00 37 1016.1
20210803051554 83 0.0 2.0 0.00 0.00 0.00 39 1016.1
20210803050547 84 0.0 1.0 0.00 0.00 0.00 39 1016.0
20210803045541 85 45 0.0 1.0 0.00 0.00 0.00 37 1015.9
20210803044537 86 0.0 1.0 0.00 0.00 0.00 36 1015.7
20210803043530 86 0.0 1.0 0.00 0.00 0.00 34 1015.6
20210803042525 87 45 0.0 2.0 0.00 0.00 0.00 34 1015.5
20210803041520 87 0.0 2.0 0.00 0.00 0.00 34 1015.4
20210803040615 88 0.0 1.0 0.00 0.00 0.00 35 1015.2
20210803035608 89 0.0 1.0 0.00 0.00 0.00 35 1015.1
20210803034601 89 0.0 2.0 0.00 0.00 0.00 35 1015.0
20210803033555 91 50 1.0 3.0 0.00 0.00 0.00 36 1014.8
20210803032549 92 52 1.0 4.0 0.00 0.00 0.00 38 1014.6
20210803031543 92 45 1.0 2.0 0.00 0.00 0.00 37 1014.4
20210803030534 93 78 1.0 2.0 0.00 0.00 0.00 36 1014.2
20210803025527 94 38 2.0 6.0 0.00 0.00 0.00 34 1014.0
20210803024521 95 57 1.0 7.0 0.00 0.00 0.00 32 1013.9
20210803023611 96 70 1.0 4.0 0.00 0.00 0.00 27 1013.6
20210803022606 97 63 1.0 4.0 0.00 0.00 0.00 21 1013.4
20210803021559 98 0 0.0 2.0 0.00 0.00 0.00 22 1013.0
20210803020554 98 0.0 0.0 0.00 0.00 0.00 22 1013.0
20210803015549 98 0.0 1.0 0.00 0.00 0.00 22 1012.9
20210803014542 98 17 1.0 3.0 0.00 0.00 0.00 16 1012.9
20210803013536 98 0 1.0 3.0 0.00 0.00 0.00 18 1013.0
20210803012530 98 65 1.0 2.0 0.00 0.00 0.00 20 1013.1
20210803011525 99 63 0.0 3.0 0.00 0.00 0.00 20 1013.1
20210803010520 98 56 1.0 2.0 0.00 0.00 0.00 16 1013.1
20210803005614 99 0 0.0 2.0 0.00 0.00 0.00 20 1013.0
20210803004611 99 244 1.0 3.0 0.00 0.00 0.00 15 1013.0
20210803003603 98 45 1.0 2.0 0.00 0.00 0.00 18 1013.0
20210803002557 98 0 0.0 2.0 0.00 0.00 0.00 18 1012.9
20210803001553 98 0.0 1.0 0.00 0.00 0.00 22 1012.9